Terminal Aerodrome Forecast
Issued by NWS

Home | Current Version | Previous Version | Text Only | Print | Product List | Glossary On
Versions: 1 2 3 4 5 6 7 8 9 10 11 12 13 14 15 16 17 18 19 20
000
FTUS43 KBIS 030105 AAA
TAFMOT
TAF AMD
KMOT 030105Z 0301/0324 07014G23KT P6SM VCTS BKN009 OVC040CB
      TEMPO 0301/0303 2SM -TSRA BR SCT008 BKN012 OVC040CB
     FM030400 35010KT P6SM -SHRA BKN005 OVC015
     FM031200 36009KT P6SM SCT025 BKN040=

USA.gov is the U.S. government's official web portal to all federal, state and local government web resources and services.